createdAt,value
2022-12-01T00:01:19.004Z,10.07
2022-12-01T00:03:46.772Z,10.73
2022-12-01T00:06:17.341Z,10.60
2022-12-01T00:09:07.433Z,10.50
2022-12-01T00:11:35.397Z,10.40
2022-12-01T00:14:05.452Z,10.90
2022-12-01T00:16:34.123Z,10.60
2022-12-01T00:19:01.801Z,11.17
2022-12-01T00:21:29.596Z,11.30
2022-12-01T00:23:59.044Z,12.70
2022-12-01T00:26:28.390Z,12.90
2022-12-01T00:28:57.593Z,13.43
2022-12-01T00:31:27.660Z,11.57
2022-12-01T00:33:55.476Z,12.27
2022-12-01T00:36:33.311Z,11.37
2022-12-01T00:39:01.138Z,12.20
2022-12-01T00:41:28.849Z,12.40
2022-12-01T00:43:56.500Z,12.60
2022-12-01T00:46:24.447Z,13.37
2022-12-01T00:48:53.717Z,12.43
2022-12-01T00:51:21.509Z,13.30
2022-12-01T00:53:49.399Z,12.23
2022-12-01T00:56:17.065Z,13.00
2022-12-01T00:58:44.814Z,12.07
2022-12-01T01:01:12.621Z,11.33
2022-12-01T01:03:40.564Z,12.77
2022-12-01T01:06:17.431Z,12.67
2022-12-01T01:08:45.071Z,12.80
2022-12-01T01:11:13.353Z,11.90
2022-12-01T01:13:40.991Z,13.53
2022-12-01T01:16:14.733Z,13.23
2022-12-01T01:18:42.611Z,13.30
2022-12-01T01:21:19.474Z,12.37
2022-12-01T01:23:50.671Z,12.07
2022-12-01T01:26:22.123Z,13.50
2022-12-01T01:28:51.094Z,12.30
2022-12-01T01:31:21.407Z,11.30
2022-12-01T01:33:50.802Z,12.60
2022-12-01T01:36:22.679Z,12.77
2022-12-01T01:38:53.186Z,11.83
2022-12-01T01:41:22.326Z,11.23
2022-12-01T01:43:51.866Z,12.67
2022-12-01T01:46:21.552Z,12.37
2022-12-01T01:48:52.494Z,11.93
2022-12-01T01:51:24.936Z,14.07
2022-12-01T01:53:57.658Z,12.63
2022-12-01T01:56:25.471Z,12.80
2022-12-01T01:58:54.154Z,12.13
2022-12-01T02:01:22.627Z,12.00
2022-12-01T02:03:54.390Z,15.17
2022-12-01T02:06:24.884Z,12.47
2022-12-01T02:08:52.687Z,12.57
2022-12-01T02:11:52.834Z,12.70
2022-12-01T02:14:35.406Z,13.00
2022-12-01T02:17:12.122Z,12.67
2022-12-01T02:19:56.146Z,10.70
2022-12-01T02:22:40.059Z,11.50
2022-12-01T02:25:28.541Z,11.87
2022-12-01T02:28:22.417Z,13.13
2022-12-01T02:30:54.632Z,11.97
2022-12-01T02:33:29.093Z,12.13
2022-12-01T02:36:02.734Z,11.63
2022-12-01T02:38:36.258Z,12.40
2022-12-01T02:41:11.868Z,11.47
2022-12-01T02:43:45.266Z,12.10
2022-12-01T02:46:19.297Z,11.17
2022-12-01T02:48:54.525Z,12.10
2022-12-01T02:51:28.903Z,12.33
2022-12-01T02:53:57.831Z,11.33
2022-12-01T02:56:25.539Z,11.47
2022-12-01T02:58:53.327Z,11.80
2022-12-01T03:01:41.420Z,11.73
2022-12-01T03:04:34.044Z,11.20
2022-12-01T03:07:13.320Z,10.77
2022-12-01T03:09:55.873Z,11.80
2022-12-01T03:12:30.735Z,11.20
2022-12-01T03:15:07.985Z,11.73
2022-12-01T03:17:41.675Z,11.80
2022-12-01T03:20:15.136Z,12.87
2022-12-01T03:22:48.920Z,11.60
2022-12-01T03:25:18.262Z,14.00
2022-12-01T03:28:19.636Z,12.30
2022-12-01T03:30:40.044Z,12.10
2022-12-01T03:33:15.267Z,10.73
2022-12-01T03:35:48.004Z,11.83
2022-12-01T03:38:22.485Z,11.03
2022-12-01T03:40:52.806Z,12.23
2022-12-01T03:43:24.495Z,12.40
2022-12-01T03:45:57.765Z,11.37
2022-12-01T03:48:27.720Z,10.80
2022-12-01T03:51:03.726Z,11.93
2022-12-01T03:53:39.876Z,12.37
2022-12-01T03:56:09.110Z,12.50
2022-12-01T03:58:41.116Z,10.80
2022-12-01T04:01:10.164Z,10.80
2022-12-01T04:03:39.271Z,11.87
2022-12-01T04:06:07.932Z,10.80
2022-12-01T04:08:37.401Z,10.80
2022-12-01T04:11:30.976Z,12.67
2022-12-01T04:13:59.296Z,11.80
2022-12-01T04:16:26.970Z,12.00
2022-12-01T04:18:56.131Z,12.33
2022-12-01T04:21:23.688Z,12.03
2022-12-01T04:24:03.537Z,11.80
2022-12-01T04:26:33.068Z,11.67
2022-12-01T04:29:00.980Z,11.90
2022-12-01T04:31:30.332Z,12.33
2022-12-01T04:34:00.715Z,12.27
2022-12-01T04:36:31.703Z,13.60
2022-12-01T04:39:03.800Z,11.17
2022-12-01T04:41:31.415Z,11.90
2022-12-01T04:43:59.189Z,11.27
2022-12-01T04:46:27.020Z,11.27
2022-12-01T04:48:54.615Z,11.53
2022-12-01T04:51:23.738Z,12.60
2022-12-01T04:53:52.331Z,11.47
2022-12-01T04:56:23.292Z,13.00
2022-12-01T04:58:50.988Z,14.13
2022-12-01T05:01:21.115Z,11.77
2022-12-01T05:03:50.224Z,11.10
2022-12-01T05:06:20.044Z,11.70
2022-12-01T05:08:49.035Z,11.37
2022-12-01T05:11:19.221Z,13.03
2022-12-01T05:13:48.974Z,12.80
2022-12-01T05:16:18.501Z,11.50
2022-12-01T05:18:49.356Z,11.37
2022-12-01T05:21:16.937Z,11.50
2022-12-01T05:23:45.568Z,11.67
2022-12-01T05:26:17.387Z,10.83
2022-12-01T05:28:45.770Z,11.37
2022-12-01T05:31:13.365Z,10.43
2022-12-01T05:33:41.065Z,12.07
2022-12-01T05:36:09.177Z,11.93
2022-12-01T05:38:36.753Z,11.17
2022-12-01T05:41:04.554Z,11.47
2022-12-01T05:43:34.031Z,10.50
2022-12-01T05:46:01.895Z,10.70
2022-12-01T05:48:30.646Z,11.50
2022-12-01T05:50:58.544Z,12.10
2022-12-01T05:53:26.107Z,11.90
2022-12-01T05:55:54.277Z,11.07
2022-12-01T05:58:23.507Z,11.30
2022-12-01T06:00:52.421Z,11.70
2022-12-01T06:03:22.549Z,12.93
2022-12-01T06:05:50.819Z,12.20
2022-12-01T06:08:19.994Z,11.40
2022-12-01T06:10:47.679Z,11.70
2022-12-01T06:13:15.729Z,12.60
2022-12-01T06:15:44.477Z,10.90
2022-12-01T06:18:14.523Z,11.33
2022-12-01T06:20:42.088Z,10.20
2022-12-01T06:23:09.662Z,11.97
2022-12-01T06:25:37.301Z,10.23
2022-12-01T06:28:05.222Z,10.77
2022-12-01T06:30:32.801Z,11.43
2022-12-01T06:33:00.609Z,11.27
2022-12-01T06:35:31.655Z,12.37
2022-12-01T06:37:59.319Z,11.57
2022-12-01T06:40:27.089Z,13.63
2022-12-01T06:42:54.879Z,12.87
2022-12-01T06:45:22.559Z,11.83
2022-12-01T06:47:54.337Z,11.03
2022-12-01T06:50:22.079Z,11.43
2022-12-01T06:52:52.718Z,11.40
2022-12-01T06:55:21.644Z,10.80
2022-12-01T06:57:49.321Z,10.97
2022-12-01T07:00:20.142Z,11.70
2022-12-01T07:02:47.781Z,11.00
2022-12-01T07:05:15.635Z,10.53
2022-12-01T07:07:46.420Z,10.10
2022-12-01T07:10:15.696Z,9.03
2022-12-01T07:12:43.679Z,10.07
2022-12-01T07:15:12.693Z,11.30
2022-12-01T07:17:40.478Z,10.40
2022-12-01T07:20:11.320Z,9.93
2022-12-01T07:22:39.917Z,10.13
2022-12-01T07:25:08.706Z,8.53
2022-12-01T07:27:37.671Z,9.37
2022-12-01T07:30:07.410Z,8.80
2022-12-01T07:32:34.996Z,9.20
2022-12-01T07:35:02.562Z,9.27
2022-12-01T07:37:30.143Z,8.60
2022-12-01T07:39:57.769Z,9.10
2022-12-01T07:42:25.307Z,8.30
2022-12-01T07:44:54.278Z,8.83
2022-12-01T07:47:21.938Z,8.90
2022-12-01T07:49:49.843Z,9.47
2022-12-01T07:52:17.602Z,8.90
2022-12-01T07:54:45.144Z,9.83
2022-12-01T07:57:14.729Z,9.63
2022-12-01T07:59:42.344Z,9.80
2022-12-01T08:02:12.181Z,9.90
2022-12-01T08:04:39.856Z,9.50
2022-12-01T08:07:07.601Z,10.33
2022-12-01T08:09:35.185Z,9.03
2022-12-01T08:12:02.771Z,9.10
2022-12-01T08:14:30.427Z,8.63
2022-12-01T08:16:57.997Z,8.07
2022-12-01T08:19:27.665Z,7.90
2022-12-01T08:21:55.216Z,8.07
2022-12-01T08:24:22.777Z,8.87
2022-12-01T08:26:50.359Z,9.93
2022-12-01T08:29:20.363Z,8.00
2022-12-01T08:31:48.593Z,8.97
2022-12-01T08:34:16.385Z,8.93
2022-12-01T08:36:45.303Z,7.90
2022-12-01T08:39:12.848Z,8.07
2022-12-01T08:41:40.431Z,8.07
2022-12-01T08:44:08.016Z,7.30
2022-12-01T08:46:36.635Z,9.33
2022-12-01T08:49:05.313Z,9.50
2022-12-01T08:51:33.266Z,9.10
2022-12-01T08:54:02.512Z,8.30
2022-12-01T08:56:35.087Z,8.40
2022-12-01T08:59:04.921Z,8.97
2022-12-01T09:01:33.503Z,9.47
2022-12-01T09:04:09.333Z,9.77
2022-12-01T09:06:41.323Z,9.70
2022-12-01T09:09:12.122Z,9.23
2022-12-01T09:11:41.323Z,9.40
2022-12-01T09:14:09.136Z,9.87
2022-12-01T09:16:37.380Z,9.77
2022-12-01T09:19:05.407Z,9.50
2022-12-01T09:21:35.106Z,10.53
2022-12-01T09:24:03.379Z,8.83
2022-12-01T09:26:32.810Z,10.03
2022-12-01T09:29:02.445Z,9.60
2022-12-01T09:31:30.713Z,9.37
2022-12-01T09:34:00.928Z,8.90
2022-12-01T09:36:29.944Z,9.30
2022-12-01T09:38:57.630Z,9.00
2022-12-01T09:41:29.053Z,9.00
2022-12-01T09:44:05.672Z,7.60
2022-12-01T09:46:38.061Z,9.17
2022-12-01T09:49:11.626Z,8.10
2022-12-01T09:51:39.704Z,9.63
2022-12-01T09:54:14.061Z,8.93
2022-12-01T09:56:46.467Z,9.33
2022-12-01T09:59:23.646Z,8.40
2022-12-01T10:01:55.969Z,7.70
2022-12-01T10:04:29.994Z,9.90
2022-12-01T10:07:01.590Z,8.93
2022-12-01T10:09:36.594Z,7.73
2022-12-01T10:12:14.111Z,8.40
2022-12-01T10:14:45.863Z,8.63
2022-12-01T10:17:22.645Z,9.03
2022-12-01T10:19:58.365Z,8.97
2022-12-01T10:22:52.932Z,9.60
2022-12-01T10:25:23.907Z,8.93
2022-12-01T10:28:07.730Z,9.40
2022-12-01T10:30:48.071Z,7.53
2022-12-01T10:33:24.131Z,8.27
2022-12-01T10:35:52.317Z,7.67
2022-12-01T10:38:27.609Z,9.17
2022-12-01T10:40:58.000Z,8.10
2022-12-01T10:43:33.351Z,9.47
2022-12-01T10:46:09.405Z,7.80
2022-12-01T10:48:53.770Z,8.50
2022-12-01T10:51:22.606Z,8.63
2022-12-01T10:53:50.709Z,7.80
2022-12-01T10:56:21.043Z,8.23
2022-12-01T10:58:52.320Z,8.43
2022-12-01T11:01:24.783Z,8.87
2022-12-01T11:03:55.710Z,8.30
2022-12-01T11:06:26.887Z,9.00
2022-12-01T11:08:58.768Z,9.03
2022-12-01T11:11:31.069Z,8.77
2022-12-01T11:14:01.189Z,8.63
2022-12-01T11:16:39.732Z,7.60
2022-12-01T11:19:26.624Z,8.03
2022-12-01T11:21:57.375Z,9.47
2022-12-01T11:24:31.643Z,8.30
2022-12-01T11:27:00.904Z,8.77
2022-12-01T11:29:35.991Z,8.03
2022-12-01T11:32:23.045Z,8.40
2022-12-01T11:34:56.320Z,9.07
2022-12-01T11:37:26.981Z,8.77
2022-12-01T11:39:54.979Z,8.73
2022-12-01T11:42:26.798Z,8.20
2022-12-01T11:44:57.031Z,8.87
2022-12-01T11:47:27.800Z,8.63
2022-12-01T11:49:57.584Z,9.10
2022-12-01T11:52:28.866Z,8.03
2022-12-01T11:54:59.970Z,7.83
2022-12-01T11:57:34.498Z,8.27
2022-12-01T12:00:06.797Z,8.70
2022-12-01T12:02:45.771Z,7.63
2022-12-01T12:05:40.893Z,7.23
2022-12-01T12:08:21.918Z,7.97
2022-12-01T12:11:00.940Z,7.10
2022-12-01T12:13:45.792Z,6.40
2022-12-01T12:16:20.014Z,7.13
2022-12-01T12:19:07.119Z,7.77
2022-12-01T12:21:39.550Z,6.90
2022-12-01T12:24:28.909Z,6.80
2022-12-01T12:27:05.897Z,7.10
2022-12-01T12:29:52.171Z,7.90
2022-12-01T12:32:37.500Z,5.90
2022-12-01T12:35:21.930Z,6.07
2022-12-01T12:38:00.156Z,6.80
2022-12-01T12:40:40.053Z,7.80
2022-12-01T12:43:24.756Z,8.60
2022-12-01T12:46:02.858Z,9.43
2022-12-01T12:49:03.942Z,8.90
2022-12-01T12:51:39.241Z,8.47
2022-12-01T12:54:17.876Z,9.20
2022-12-01T12:56:49.007Z,9.50
2022-12-01T12:59:21.301Z,10.10
2022-12-01T13:01:58.866Z,9.83
2022-12-01T13:04:33.159Z,9.30
2022-12-01T13:07:07.205Z,8.90
2022-12-01T13:09:38.272Z,9.77
2022-12-01T13:12:15.809Z,8.87
2022-12-01T13:14:47.383Z,8.70
2022-12-01T13:17:19.301Z,8.50
2022-12-01T13:19:47.760Z,9.70
2022-12-01T13:22:21.980Z,9.47
2022-12-01T13:24:49.863Z,8.63
2022-12-01T13:27:20.938Z,9.67
2022-12-01T13:29:53.167Z,9.43
2022-12-01T13:32:40.931Z,9.07
2022-12-01T13:35:32.619Z,10.30
2022-12-01T13:38:40.220Z,8.63
2022-12-01T13:41:14.429Z,9.97
2022-12-01T13:43:55.483Z,9.40
2022-12-01T13:46:26.037Z,8.10
2022-12-01T13:48:56.592Z,8.60
2022-12-01T13:51:24.778Z,9.27
2022-12-01T13:54:27.190Z,9.33
2022-12-01T13:57:02.623Z,9.60
2022-12-01T14:00:03.414Z,8.87
2022-12-01T14:02:33.471Z,8.40
2022-12-01T14:05:34.700Z,7.53
2022-12-01T14:08:02.482Z,8.90
2022-12-01T14:10:33.549Z,9.77
2022-12-01T14:13:04.805Z,8.37
2022-12-01T14:15:43.187Z,8.57
2022-12-01T14:18:30.175Z,8.63
2022-12-01T14:21:35.099Z,8.90
2022-12-01T14:24:06.462Z,9.30
2022-12-01T14:26:45.287Z,9.17
2022-12-01T14:29:30.707Z,9.37
2022-12-01T14:32:23.039Z,9.80
2022-12-01T14:34:54.622Z,8.80
2022-12-01T14:37:25.769Z,9.50
2022-12-01T14:39:58.262Z,8.90
2022-12-01T14:42:49.645Z,8.97
2022-12-01T14:45:22.812Z,9.17
2022-12-01T14:47:57.144Z,8.70
2022-12-01T14:50:30.959Z,9.23
2022-12-01T14:53:03.302Z,9.97
2022-12-01T14:55:36.712Z,9.70
2022-12-01T14:58:08.488Z,7.90
2022-12-01T15:00:38.578Z,8.87
2022-12-01T15:03:09.744Z,9.07
2022-12-01T15:05:40.636Z,8.40
2022-12-01T15:08:40.878Z,8.73
2022-12-01T15:11:11.103Z,8.60
2022-12-01T15:13:49.578Z,9.30
2022-12-01T15:16:20.063Z,9.70
2022-12-01T15:18:47.827Z,8.70
2022-12-01T15:21:19.422Z,9.57
2022-12-01T15:23:54.350Z,8.87
2022-12-01T15:26:24.470Z,9.00
2022-12-01T15:29:06.155Z,8.57
2022-12-01T15:31:35.997Z,9.60
2022-12-01T15:34:04.006Z,10.10
2022-12-01T15:36:32.193Z,9.40
2022-12-01T15:39:06.829Z,9.70
2022-12-01T15:41:39.997Z,9.13
2022-12-01T15:44:21.017Z,9.30
2022-12-01T15:46:48.991Z,9.10
2022-12-01T15:49:19.575Z,10.13
2022-12-01T15:51:48.671Z,10.80
2022-12-01T15:54:21.532Z,9.43
2022-12-01T15:56:53.242Z,10.20
2022-12-01T15:59:30.073Z,10.03
2022-12-01T16:01:59.165Z,10.17
2022-12-01T16:04:29.268Z,8.97
2022-12-01T16:07:00.193Z,10.40
2022-12-01T16:09:31.397Z,10.70
2022-12-01T16:12:08.070Z,10.27
2022-12-01T16:14:38.324Z,9.80
2022-12-01T16:17:10.981Z,9.53
2022-12-01T16:19:43.572Z,8.40
2022-12-01T16:22:16.728Z,9.63
2022-12-01T16:24:48.459Z,9.93
2022-12-01T16:27:24.063Z,11.10
2022-12-01T16:29:55.671Z,9.20
2022-12-01T16:32:29.423Z,9.80
2022-12-01T16:34:57.127Z,9.20
2022-12-01T16:37:24.969Z,9.87
2022-12-01T16:39:52.618Z,9.90
2022-12-01T16:42:22.521Z,9.67
2022-12-01T16:44:51.169Z,9.67
2022-12-01T16:47:23.383Z,11.10
2022-12-01T16:49:51.947Z,10.70
2022-12-01T16:55:23.524Z,8.63
2022-12-01T16:57:51.513Z,9.90
2022-12-01T17:00:19.815Z,9.67
2022-12-01T17:02:49.191Z,9.70
2022-12-01T17:05:16.966Z,10.13
2022-12-01T17:07:44.673Z,10.27
2022-12-01T17:10:12.840Z,9.70
2022-12-01T17:12:40.732Z,10.90
2022-12-01T17:15:09.970Z,12.03
2022-12-01T17:17:37.705Z,10.50
2022-12-01T17:20:10.862Z,10.77
2022-12-01T17:22:39.266Z,12.10
2022-12-01T17:25:11.850Z,11.20
2022-12-01T17:27:40.077Z,11.33
2022-12-01T17:30:12.099Z,12.13
2022-12-01T17:32:39.715Z,11.50
2022-12-01T17:35:13.228Z,11.73
2022-12-01T17:37:40.930Z,12.40
2022-12-01T17:40:13.690Z,10.83
2022-12-01T17:42:48.559Z,11.07
2022-12-01T17:45:18.904Z,12.10
2022-12-01T17:47:46.583Z,12.53
2022-12-01T17:50:16.381Z,12.43
2022-12-01T17:52:44.073Z,11.03
2022-12-01T17:55:11.695Z,11.07
2022-12-01T17:57:39.426Z,11.70
2022-12-01T18:00:08.602Z,11.40
2022-12-01T18:02:37.630Z,11.77
2022-12-01T18:05:06.061Z,13.47
2022-12-01T18:07:35.120Z,11.27
2022-12-01T18:10:02.778Z,13.03
2022-12-01T18:12:30.412Z,13.43
2022-12-01T18:14:58.021Z,11.70
2022-12-01T18:17:27.308Z,11.87
2022-12-01T18:19:54.972Z,10.13
2022-12-01T18:22:23.497Z,11.97
2022-12-01T18:24:53.663Z,11.60
2022-12-01T18:27:21.252Z,12.43
2022-12-01T18:29:49.188Z,12.10
2022-12-01T18:32:17.574Z,11.30
2022-12-01T18:34:45.266Z,12.00
2022-12-01T18:37:12.979Z,10.70
2022-12-01T18:39:40.553Z,11.70
2022-12-01T18:42:09.561Z,10.00
2022-12-01T18:44:38.910Z,10.60
2022-12-01T18:47:06.757Z,11.77
2022-12-01T18:49:34.575Z,12.27
2022-12-01T18:52:03.610Z,11.50
2022-12-01T18:54:32.027Z,11.53
2022-12-01T18:56:59.785Z,12.47
2022-12-01T18:59:28.921Z,11.13
2022-12-01T19:01:56.692Z,12.13
2022-12-01T19:04:24.447Z,12.00
2022-12-01T19:06:52.083Z,11.40
2022-12-01T19:09:19.899Z,11.77
2022-12-01T19:11:47.858Z,12.60
2022-12-01T19:14:17.519Z,11.90
2022-12-01T19:16:49.281Z,11.40
2022-12-01T19:19:16.880Z,10.97
2022-12-01T19:21:45.343Z,12.50
2022-12-01T19:24:13.138Z,12.13
2022-12-01T19:26:40.878Z,11.97
2022-12-01T19:29:10.188Z,11.10
2022-12-01T19:31:38.189Z,11.87
2022-12-01T19:34:10.069Z,10.70
2022-12-01T19:36:37.756Z,12.27
2022-12-01T19:39:07.810Z,12.60
2022-12-01T19:41:38.643Z,12.00
2022-12-01T19:46:49.054Z,11.67
2022-12-01T19:49:18.420Z,11.63
2022-12-01T19:51:46.284Z,12.37
2022-12-01T19:54:16.175Z,12.23
2022-12-01T19:56:46.861Z,12.27
2022-12-01T19:59:14.893Z,12.60
2022-12-01T20:01:42.979Z,13.40
2022-12-01T20:04:11.282Z,13.10
2022-12-01T20:06:42.768Z,14.03
2022-12-01T20:09:10.600Z,13.60
2022-12-01T20:11:38.449Z,12.40
2022-12-01T20:14:08.005Z,11.63
2022-12-01T20:16:36.123Z,13.53
2022-12-01T20:19:05.628Z,12.77
2022-12-01T20:21:35.157Z,12.00
2022-12-01T20:24:06.264Z,13.83
2022-12-01T20:26:36.293Z,12.83
2022-12-01T20:29:06.121Z,11.47
2022-12-01T20:31:35.262Z,12.30
2022-12-01T20:34:10.113Z,11.03
2022-12-01T20:36:38.047Z,12.80
2022-12-01T20:39:08.135Z,12.20
2022-12-01T20:41:41.651Z,12.20
2022-12-01T20:44:13.064Z,13.33
2022-12-01T20:46:41.848Z,12.90
2022-12-01T20:49:10.001Z,12.37
2022-12-01T20:51:37.702Z,12.47
2022-12-01T20:54:32.750Z,13.90
2022-12-01T20:57:00.688Z,12.33
2022-12-01T20:59:29.493Z,11.83
2022-12-01T21:01:57.441Z,11.87
2022-12-01T21:04:27.156Z,12.90
2022-12-01T21:06:56.858Z,13.87
2022-12-01T21:09:26.377Z,12.00
2022-12-01T21:12:12.401Z,11.07
2022-12-01T21:14:45.899Z,11.50
2022-12-01T21:17:23.014Z,12.33
2022-12-01T21:19:56.416Z,12.77
2022-12-01T21:22:25.789Z,11.30
2022-12-01T21:25:02.671Z,12.00
2022-12-01T21:27:30.867Z,11.77
2022-12-01T21:29:58.592Z,12.07
2022-12-01T21:32:31.567Z,12.43
2022-12-01T21:35:06.874Z,11.60
2022-12-01T21:37:34.810Z,12.60
2022-12-01T21:40:04.021Z,12.67
2022-12-01T21:42:32.665Z,11.80
2022-12-01T21:45:01.895Z,11.17
2022-12-01T21:47:31.518Z,12.30
2022-12-01T21:50:00.804Z,11.70
2022-12-01T21:52:31.783Z,12.23
2022-12-01T21:55:12.178Z,13.53
2022-12-01T21:57:43.265Z,11.03
2022-12-01T22:00:36.509Z,13.57
2022-12-01T22:03:32.342Z,13.53
2022-12-01T22:08:52.570Z,12.30
2022-12-01T22:11:22.929Z,11.90
2022-12-01T22:13:55.956Z,11.53
2022-12-01T22:16:30.061Z,12.00
2022-12-01T22:18:59.349Z,11.50
2022-12-01T22:21:42.142Z,10.97
2022-12-01T22:24:21.708Z,12.00
2022-12-01T22:26:56.266Z,12.07
2022-12-01T22:29:28.614Z,12.10
2022-12-01T22:32:24.858Z,11.13
2022-12-01T22:34:54.849Z,10.20
2022-12-01T22:37:24.443Z,11.77
2022-12-01T22:39:56.109Z,10.20
2022-12-01T22:42:31.254Z,10.53
2022-12-01T22:45:01.949Z,11.30
2022-12-01T22:47:33.187Z,10.23
2022-12-01T22:50:01.024Z,11.83
2022-12-01T22:52:33.488Z,10.83
2022-12-01T22:55:01.163Z,11.27
2022-12-01T22:57:34.837Z,11.80
2022-12-01T23:00:14.804Z,10.47
2022-12-01T23:02:42.792Z,11.03
2022-12-01T23:05:23.196Z,11.03
2022-12-01T23:07:52.653Z,10.47
2022-12-01T23:10:30.183Z,11.30
2022-12-01T23:13:02.276Z,11.23
2022-12-01T23:15:33.894Z,9.73
2022-12-01T23:18:12.789Z,12.13
2022-12-01T23:20:42.013Z,11.53
2022-12-01T23:23:15.403Z,10.77
2022-12-01T23:25:44.124Z,10.43
2022-12-01T23:28:14.406Z,10.60
2022-12-01T23:30:44.152Z,10.07
2022-12-01T23:33:21.019Z,10.67
2022-12-01T23:35:53.186Z,9.97
2022-12-01T23:38:23.431Z,10.10
2022-12-01T23:40:53.268Z,11.17
2022-12-01T23:43:26.037Z,11.00
2022-12-01T23:46:03.171Z,10.23
2022-12-01T23:48:35.085Z,9.80
2022-12-01T23:51:03.075Z,11.87
2022-12-01T23:53:32.891Z,10.60
2022-12-01T23:56:05.407Z,11.37
2022-12-01T23:58:35.223Z,10.13
